createdAt,value
2022-10-10T00:01:16.249Z,10.40
2022-10-10T00:03:44.803Z,10.40
2022-10-10T00:06:13.569Z,10.40
2022-10-10T00:08:41.677Z,10.30
2022-10-10T00:11:09.925Z,10.30
2022-10-10T00:13:38.145Z,10.30
2022-10-10T00:16:06.489Z,10.30
2022-10-10T00:18:37.045Z,10.20
2022-10-10T00:21:05.207Z,10.20
2022-10-10T00:23:33.035Z,10.20
2022-10-10T00:26:04.457Z,10.20
2022-10-10T00:28:38.210Z,10.20
2022-10-10T00:31:06.641Z,10.20
2022-10-10T00:33:36.066Z,10.10
2022-10-10T00:36:04.621Z,10.10
2022-10-10T00:38:32.566Z,10.10
2022-10-10T00:41:00.634Z,10.10
2022-10-10T00:43:29.345Z,10.00
2022-10-10T00:45:57.203Z,10.00
2022-10-10T00:48:29.034Z,10.00
2022-10-10T00:51:01.840Z,10.00
2022-10-10T00:53:33.041Z,10.00
2022-10-10T00:56:01.966Z,10.00
2022-10-10T00:58:29.919Z,9.90
2022-10-10T01:00:58.046Z,9.90
2022-10-10T01:03:25.902Z,9.90
2022-10-10T01:05:54.194Z,9.90
2022-10-10T01:08:23.790Z,9.80
2022-10-10T01:11:06.306Z,9.80
2022-10-10T01:13:40.515Z,9.80
2022-10-10T01:16:15.602Z,9.80
2022-10-10T01:18:48.142Z,9.80
2022-10-10T01:21:24.205Z,9.80
2022-10-10T01:24:46.638Z,9.80
2022-10-10T01:27:28.900Z,9.80
2022-10-10T01:30:05.838Z,9.70
2022-10-10T01:32:39.178Z,9.70
2022-10-10T01:35:22.369Z,9.70
2022-10-10T01:37:56.665Z,9.70
2022-10-10T01:40:31.391Z,9.70
2022-10-10T01:43:03.267Z,9.60
2022-10-10T01:45:32.654Z,9.60
2022-10-10T01:48:04.877Z,9.60
2022-10-10T01:50:35.681Z,9.60
2022-10-10T01:53:11.516Z,9.60
2022-10-10T01:55:49.897Z,9.60
2022-10-10T01:58:37.033Z,9.60
2022-10-10T02:01:11.939Z,9.50
2022-10-10T02:03:45.763Z,9.50
2022-10-10T02:06:21.396Z,9.50
2022-10-10T02:08:52.706Z,9.50
2022-10-10T02:11:20.942Z,9.50
2022-10-10T02:13:52.206Z,9.40
2022-10-10T02:16:26.762Z,9.40
2022-10-10T02:18:57.667Z,9.40
2022-10-10T02:21:27.061Z,9.40
2022-10-10T02:23:58.963Z,9.40
2022-10-10T02:26:29.269Z,9.30
2022-10-10T02:29:00.584Z,9.30
2022-10-10T02:31:34.181Z,9.30
2022-10-10T02:34:08.804Z,9.30
2022-10-10T02:36:37.507Z,9.30
2022-10-10T02:39:05.996Z,9.20
2022-10-10T02:41:36.331Z,9.30
2022-10-10T02:44:04.629Z,9.20
2022-10-10T02:46:33.772Z,9.20
2022-10-10T02:49:03.038Z,9.20
2022-10-10T02:51:30.946Z,9.20
2022-10-10T02:53:58.798Z,9.20
2022-10-10T02:56:26.722Z,9.10
2022-10-10T02:58:54.732Z,9.10
2022-10-10T03:01:22.659Z,9.10
2022-10-10T03:03:51.959Z,9.10
2022-10-10T03:06:19.819Z,9.10
2022-10-10T03:08:47.634Z,9.10
2022-10-10T03:11:15.485Z,9.10
2022-10-10T03:13:43.530Z,9.10
2022-10-10T03:16:11.301Z,9.00
2022-10-10T03:18:39.155Z,9.00
2022-10-10T03:21:08.751Z,9.00
2022-10-10T03:23:36.677Z,9.00
2022-10-10T03:26:05.977Z,9.00
2022-10-10T03:28:33.963Z,9.00
2022-10-10T03:31:01.745Z,8.90
2022-10-10T03:33:29.532Z,8.90
2022-10-10T03:35:57.396Z,8.90
2022-10-10T03:38:26.598Z,8.90
2022-10-10T03:40:54.504Z,8.80
2022-10-10T03:43:22.476Z,8.80
2022-10-10T03:45:50.481Z,8.80
2022-10-10T03:48:18.546Z,8.80
2022-10-10T03:50:46.470Z,8.80
2022-10-10T03:53:14.278Z,8.80
2022-10-10T03:55:43.842Z,8.80
2022-10-10T03:58:12.367Z,8.70
2022-10-10T04:00:40.710Z,8.70
2022-10-10T04:03:09.206Z,8.70
2022-10-10T04:05:37.798Z,8.70
2022-10-10T04:08:06.701Z,8.70
2022-10-10T04:10:34.477Z,8.70
2022-10-10T04:13:03.774Z,8.70
2022-10-10T04:15:32.475Z,8.70
2022-10-10T04:18:00.306Z,8.70
2022-10-10T04:20:28.190Z,8.60
2022-10-10T04:22:56.069Z,8.60
2022-10-10T04:25:23.924Z,8.60
2022-10-10T04:27:51.798Z,8.60
2022-10-10T04:30:21.456Z,8.60
2022-10-10T04:32:49.634Z,8.60
2022-10-10T04:35:17.785Z,8.60
2022-10-10T04:37:46.626Z,8.60
2022-10-10T04:40:14.393Z,8.50
2022-10-10T04:42:42.218Z,8.60
2022-10-10T04:45:10.868Z,8.50
2022-10-10T04:47:40.015Z,8.50
2022-10-10T04:50:08.652Z,8.50
2022-10-10T04:52:36.523Z,8.50
2022-10-10T04:55:04.596Z,8.60
2022-10-10T04:57:32.424Z,8.50
2022-10-10T05:00:00.324Z,8.50
2022-10-10T05:02:28.218Z,8.50
2022-10-10T05:04:57.435Z,8.50
2022-10-10T05:07:25.872Z,8.50
2022-10-10T05:09:53.632Z,8.50
2022-10-10T05:12:21.444Z,8.50
2022-10-10T05:14:49.196Z,8.50
2022-10-10T05:17:17.032Z,8.40
2022-10-10T05:19:44.920Z,8.40
2022-10-10T05:22:14.078Z,8.50
2022-10-10T05:24:41.926Z,8.50
2022-10-10T05:27:09.848Z,8.50
2022-10-10T05:29:37.872Z,8.40
2022-10-10T05:32:10.079Z,8.40
2022-10-10T05:34:38.742Z,8.40
2022-10-10T05:37:06.534Z,8.40
2022-10-10T05:39:36.102Z,8.30
2022-10-10T05:42:04.871Z,8.30
2022-10-10T05:44:33.689Z,8.30
2022-10-10T05:47:01.673Z,8.30
2022-10-10T05:49:29.587Z,8.20
2022-10-10T05:51:57.428Z,8.20
2022-10-10T05:54:25.218Z,8.20
2022-10-10T05:56:54.364Z,8.20
2022-10-10T05:59:22.245Z,8.20
2022-10-10T06:01:50.326Z,8.20
2022-10-10T06:04:18.358Z,8.20
2022-10-10T06:06:46.173Z,8.20
2022-10-10T06:09:14.071Z,8.20
2022-10-10T06:11:41.930Z,8.20
2022-10-10T06:14:11.395Z,8.20
2022-10-10T06:16:39.585Z,8.20
2022-10-10T06:19:11.351Z,8.20
2022-10-10T06:21:41.821Z,8.10
2022-10-10T06:24:10.647Z,8.20
2022-10-10T06:26:38.476Z,8.60
2022-10-10T06:29:07.276Z,8.90
2022-10-10T06:31:39.340Z,8.90
2022-10-10T06:34:07.677Z,8.90
2022-10-10T06:36:36.092Z,8.70
2022-10-10T06:39:04.459Z,8.70
2022-10-10T06:41:32.254Z,8.60
2022-10-10T06:44:00.109Z,8.50
2022-10-10T06:46:28.079Z,8.50
2022-10-10T06:48:57.251Z,8.50
2022-10-10T06:51:25.909Z,8.50
2022-10-10T06:53:53.940Z,8.50
2022-10-10T06:56:26.519Z,8.60
2022-10-10T06:58:55.800Z,8.60
2022-10-10T07:01:25.732Z,8.60
2022-10-10T07:03:54.055Z,8.60
2022-10-10T07:06:23.626Z,8.60
2022-10-10T07:08:51.472Z,8.70
2022-10-10T07:11:19.350Z,8.70
2022-10-10T07:13:47.224Z,8.70
2022-10-10T07:16:14.994Z,8.80
2022-10-10T07:18:42.866Z,8.80
2022-10-10T07:21:10.843Z,8.90
2022-10-10T07:23:39.972Z,9.00
2022-10-10T07:26:10.734Z,9.10
2022-10-10T07:28:39.201Z,9.10
2022-10-10T07:31:09.702Z,9.20
2022-10-10T07:33:40.182Z,9.40
2022-10-10T07:36:08.943Z,9.50
2022-10-10T07:38:38.145Z,9.70
2022-10-10T07:41:08.342Z,9.80
2022-10-10T07:43:37.178Z,10.00
2022-10-10T07:46:08.207Z,10.20
2022-10-10T07:48:39.957Z,10.40
2022-10-10T07:51:08.402Z,10.50
2022-10-10T07:53:36.307Z,10.60
2022-10-10T07:56:07.761Z,10.90
2022-10-10T07:58:36.017Z,11.10
2022-10-10T08:01:05.087Z,11.30
2022-10-10T08:03:33.147Z,11.50
2022-10-10T08:06:04.011Z,11.70
2022-10-10T08:08:34.340Z,11.90
2022-10-10T08:11:05.051Z,12.00
2022-10-10T08:13:34.770Z,12.10
2022-10-10T08:16:03.198Z,12.20
2022-10-10T08:18:31.170Z,12.30
2022-10-10T08:21:03.594Z,12.30
2022-10-10T08:23:31.423Z,12.40
2022-10-10T08:25:59.834Z,12.40
2022-10-10T08:28:28.012Z,12.60
2022-10-10T08:30:57.482Z,12.70
2022-10-10T08:33:27.964Z,12.90
2022-10-10T08:35:56.488Z,13.00
2022-10-10T08:38:24.241Z,13.10
2022-10-10T08:40:55.942Z,13.30
2022-10-10T08:43:32.071Z,13.40
2022-10-10T08:46:10.392Z,13.50
2022-10-10T08:48:40.092Z,13.70
2022-10-10T08:51:14.091Z,13.80
2022-10-10T08:53:45.218Z,14.00
2022-10-10T08:56:17.567Z,14.00
2022-10-10T08:58:49.139Z,13.80
2022-10-10T09:01:25.041Z,13.80
2022-10-10T09:03:58.077Z,13.90
2022-10-10T09:06:35.748Z,14.10
2022-10-10T09:09:11.979Z,14.30
2022-10-10T09:11:52.815Z,14.60
2022-10-10T09:14:34.237Z,14.70
2022-10-10T09:17:13.763Z,14.80
2022-10-10T09:19:54.715Z,14.70
2022-10-10T09:22:27.501Z,14.40
2022-10-10T09:25:00.028Z,14.50
2022-10-10T09:27:33.019Z,14.70
2022-10-10T09:30:05.198Z,14.70
2022-10-10T09:32:38.581Z,14.80
2022-10-10T09:35:16.205Z,14.90
2022-10-10T09:37:47.833Z,15.10
2022-10-10T09:40:23.356Z,15.40
2022-10-10T09:42:51.545Z,15.60
2022-10-10T09:45:21.882Z,15.80
2022-10-10T09:47:54.252Z,15.90
2022-10-10T09:50:23.399Z,16.00
2022-10-10T09:52:52.681Z,15.90
2022-10-10T09:55:26.358Z,15.90
2022-10-10T09:57:56.098Z,15.80
2022-10-10T10:00:35.553Z,15.80
2022-10-10T10:03:16.561Z,16.00
2022-10-10T10:05:47.112Z,16.20
2022-10-10T10:08:25.950Z,16.10
2022-10-10T10:10:58.074Z,16.00
2022-10-10T10:13:30.372Z,16.00
2022-10-10T10:16:03.089Z,16.10
2022-10-10T10:18:38.785Z,15.90
2022-10-10T10:21:17.172Z,15.80
2022-10-10T10:23:51.785Z,16.00
2022-10-10T10:26:22.640Z,16.20
2022-10-10T10:28:52.330Z,16.40
2022-10-10T10:31:44.792Z,16.30
2022-10-10T10:34:32.131Z,16.40
2022-10-10T10:37:14.845Z,16.50
2022-10-10T10:39:51.266Z,16.50
2022-10-10T10:42:31.910Z,16.60
2022-10-10T10:45:07.831Z,16.70
2022-10-10T10:47:44.264Z,16.70
2022-10-10T10:50:31.231Z,16.60
2022-10-10T10:53:05.258Z,16.80
2022-10-10T10:55:40.344Z,16.90
2022-10-10T11:01:51.840Z,16.80
2022-10-10T11:05:18.961Z,16.80
2022-10-10T11:07:21.628Z,16.80
2022-10-10T11:09:56.363Z,16.70
2022-10-10T11:12:48.149Z,16.70
2022-10-10T11:15:20.318Z,16.70
2022-10-10T11:17:54.026Z,16.80
2022-10-10T11:20:26.794Z,16.80
2022-10-10T11:23:04.203Z,16.90
2022-10-10T11:25:42.502Z,17.00
2022-10-10T11:28:15.463Z,17.00
2022-10-10T11:30:49.150Z,16.90
2022-10-10T11:33:20.729Z,16.80
2022-10-10T11:35:53.897Z,16.80
2022-10-10T11:38:26.892Z,16.80
2022-10-10T11:40:59.135Z,16.90
2022-10-10T11:43:36.477Z,16.90
2022-10-10T11:46:12.396Z,16.90
2022-10-10T11:48:48.146Z,16.90
2022-10-10T11:51:25.698Z,16.80
2022-10-10T11:54:00.773Z,16.90
2022-10-10T11:56:33.042Z,16.90
2022-10-10T11:59:06.033Z,16.90
2022-10-10T12:01:38.589Z,16.90
2022-10-10T12:04:06.430Z,16.90
2022-10-10T12:06:38.758Z,17.00
2022-10-10T12:09:14.766Z,17.10
2022-10-10T12:11:47.636Z,17.10
2022-10-10T12:14:18.669Z,17.10
2022-10-10T12:16:47.284Z,17.20
2022-10-10T12:19:20.411Z,17.20
2022-10-10T12:22:00.352Z,17.30
2022-10-10T12:24:31.633Z,17.20
2022-10-10T12:27:27.754Z,17.10
2022-10-10T12:30:28.972Z,17.30
2022-10-10T12:32:57.594Z,17.30
2022-10-10T12:35:40.153Z,17.40
2022-10-10T12:38:17.616Z,17.40
2022-10-10T12:41:12.284Z,17.40
2022-10-10T12:43:43.328Z,17.40
2022-10-10T12:46:34.477Z,17.50
2022-10-10T12:49:20.669Z,17.50
2022-10-10T12:52:01.451Z,17.50
2022-10-10T12:54:33.574Z,17.50
2022-10-10T12:57:10.116Z,17.40
2022-10-10T12:59:39.095Z,17.40
2022-10-10T13:02:13.770Z,17.40
2022-10-10T13:04:44.329Z,17.40
2022-10-10T13:07:17.441Z,17.30
2022-10-10T13:09:48.079Z,17.30
2022-10-10T13:12:29.723Z,17.30
2022-10-10T13:14:58.167Z,17.50
2022-10-10T13:17:28.740Z,17.50
2022-10-10T13:19:58.218Z,17.60
2022-10-10T13:22:27.041Z,17.60
2022-10-10T13:24:55.115Z,17.60
2022-10-10T13:27:26.244Z,17.60
2022-10-10T13:29:56.200Z,17.60
2022-10-10T13:32:27.363Z,17.50
2022-10-10T13:34:58.120Z,17.50
2022-10-10T13:37:26.912Z,17.50
2022-10-10T13:39:55.449Z,17.50
2022-10-10T13:42:31.853Z,17.60
2022-10-10T13:45:02.971Z,17.70
2022-10-10T13:47:49.663Z,17.70
2022-10-10T13:50:24.247Z,17.60
2022-10-10T13:53:14.877Z,17.60
2022-10-10T13:55:42.833Z,17.40
2022-10-10T13:58:11.366Z,17.40
2022-10-10T14:00:40.550Z,17.50
2022-10-10T14:03:15.628Z,17.70
2022-10-10T14:05:46.174Z,17.60
2022-10-10T14:08:18.086Z,17.60
2022-10-10T14:10:57.502Z,17.70
2022-10-10T14:13:25.550Z,17.70
2022-10-10T14:15:55.366Z,17.70
2022-10-10T14:18:25.071Z,17.70
2022-10-10T14:20:55.402Z,17.50
2022-10-10T14:23:23.621Z,17.50
2022-10-10T14:25:51.843Z,17.30
2022-10-10T14:28:24.403Z,17.30
2022-10-10T14:30:53.597Z,17.20
2022-10-10T14:33:21.563Z,17.10
2022-10-10T14:35:51.589Z,17.20
2022-10-10T14:38:19.563Z,17.10
2022-10-10T14:40:50.041Z,17.00
2022-10-10T14:43:20.408Z,17.00
2022-10-10T14:45:51.135Z,17.00
2022-10-10T14:48:20.954Z,17.00
2022-10-10T14:50:51.056Z,16.90
2022-10-10T14:53:19.458Z,16.90
2022-10-10T14:55:47.639Z,16.90
2022-10-10T14:58:17.117Z,16.90
2022-10-10T15:00:45.452Z,16.80
2022-10-10T15:03:13.514Z,16.80
2022-10-10T15:05:42.923Z,16.70
2022-10-10T15:08:14.253Z,16.80
2022-10-10T15:10:42.081Z,16.70
2022-10-10T15:13:11.558Z,16.70
2022-10-10T15:15:39.500Z,16.60
2022-10-10T15:18:20.101Z,16.60
2022-10-10T15:20:56.138Z,16.60
2022-10-10T15:23:23.901Z,16.60
2022-10-10T15:25:51.727Z,16.60
2022-10-10T15:28:19.802Z,16.70
2022-10-10T15:30:47.949Z,16.60
2022-10-10T15:33:15.723Z,16.60
2022-10-10T15:36:08.073Z,16.60
2022-10-10T15:38:35.279Z,16.60
2022-10-10T15:41:06.343Z,16.50
2022-10-10T15:43:43.831Z,16.50
2022-10-10T15:46:11.987Z,16.50
2022-10-10T15:48:39.918Z,16.40
2022-10-10T15:51:09.151Z,16.40
2022-10-10T15:53:38.380Z,16.40
2022-10-10T15:56:10.331Z,16.30
2022-10-10T15:58:39.593Z,16.40
2022-10-10T16:01:12.602Z,16.40
2022-10-10T16:03:40.578Z,16.40
2022-10-10T16:06:09.060Z,16.40
2022-10-10T16:08:38.925Z,16.30
2022-10-10T16:11:08.233Z,16.30
2022-10-10T16:13:36.502Z,16.30
2022-10-10T16:16:07.111Z,16.30
2022-10-10T16:18:40.188Z,16.30
2022-10-10T16:21:09.505Z,16.30
2022-10-10T16:23:39.269Z,16.20
2022-10-10T16:26:09.124Z,16.20
2022-10-10T16:28:37.139Z,16.20
2022-10-10T16:31:06.362Z,16.20
2022-10-10T16:33:34.756Z,16.10
2022-10-10T16:36:02.766Z,16.10
2022-10-10T16:38:30.649Z,15.90
2022-10-10T16:41:02.998Z,15.80
2022-10-10T16:43:31.337Z,15.50
2022-10-10T16:46:02.826Z,15.40
2022-10-10T16:48:31.482Z,15.40
2022-10-10T16:51:03.348Z,15.40
2022-10-10T16:53:31.856Z,15.20
2022-10-10T16:56:01.787Z,15.20
2022-10-10T16:58:30.683Z,15.10
2022-10-10T17:01:03.629Z,15.10
2022-10-10T17:03:33.676Z,15.10
2022-10-10T17:06:02.641Z,15.10
2022-10-10T17:08:31.598Z,15.10
2022-10-10T17:11:01.303Z,15.00
2022-10-10T17:13:31.153Z,15.10
2022-10-10T17:16:21.833Z,15.00
2022-10-10T17:18:47.207Z,15.00
2022-10-10T17:21:17.143Z,15.00
2022-10-10T17:23:45.464Z,15.00
2022-10-10T17:26:16.906Z,14.90
2022-10-10T17:28:45.205Z,14.90
2022-10-10T17:31:15.861Z,14.70
2022-10-10T17:33:47.691Z,14.60
2022-10-10T17:36:21.404Z,14.50
2022-10-10T17:38:49.967Z,14.40
2022-10-10T17:41:20.352Z,14.30
2022-10-10T17:43:48.454Z,14.20
2022-10-10T17:46:35.952Z,14.20
2022-10-10T17:49:05.965Z,14.20
2022-10-10T17:51:34.666Z,14.10
2022-10-10T17:54:02.904Z,14.00
2022-10-10T17:56:32.473Z,13.90
2022-10-10T17:59:01.496Z,13.70
2022-10-10T18:01:30.399Z,13.60
2022-10-10T18:03:58.619Z,13.40
2022-10-10T18:06:26.736Z,13.30
2022-10-10T18:08:55.606Z,13.30
2022-10-10T18:11:24.900Z,13.20
2022-10-10T18:13:59.973Z,13.00
2022-10-10T18:16:30.406Z,13.00
2022-10-10T18:18:59.367Z,13.00
2022-10-10T18:21:27.587Z,13.00
2022-10-10T18:23:55.889Z,12.80
2022-10-10T18:26:26.019Z,12.70
2022-10-10T18:28:56.320Z,12.70
2022-10-10T18:31:26.561Z,12.80
2022-10-10T18:33:54.724Z,12.70
2022-10-10T18:36:25.384Z,12.70
2022-10-10T18:38:53.239Z,12.60
2022-10-10T18:41:22.582Z,12.50
2022-10-10T18:43:51.586Z,12.50
2022-10-10T18:46:22.573Z,12.40
2022-10-10T18:48:54.023Z,12.50
2022-10-10T18:51:25.952Z,12.50
2022-10-10T18:53:57.908Z,12.40
2022-10-10T18:56:25.726Z,12.40
2022-10-10T18:58:56.360Z,12.30
2022-10-10T19:01:26.850Z,12.30
2022-10-10T19:03:55.845Z,12.10
2022-10-10T19:06:25.127Z,12.00
2022-10-10T19:08:55.611Z,12.00
2022-10-10T19:11:25.131Z,12.00
2022-10-10T19:13:53.250Z,12.10
2022-10-10T19:16:21.389Z,12.00
2022-10-10T19:18:50.629Z,11.90
2022-10-10T19:21:18.478Z,11.90
2022-10-10T19:23:46.548Z,11.90
2022-10-10T19:26:16.838Z,11.90
2022-10-10T19:28:45.141Z,12.00
2022-10-10T19:31:14.421Z,12.00
2022-10-10T19:33:43.069Z,12.00
2022-10-10T19:36:13.346Z,12.10
2022-10-10T19:38:42.737Z,12.00
2022-10-10T19:41:12.692Z,12.00
2022-10-10T19:43:40.851Z,12.10
2022-10-10T19:46:11.738Z,11.90
2022-10-10T19:48:39.543Z,11.90
2022-10-10T19:51:09.787Z,11.90
2022-10-10T19:53:39.866Z,11.70
2022-10-10T19:56:11.544Z,11.80
2022-10-10T19:58:39.586Z,11.70
2022-10-10T20:01:08.321Z,11.70
2022-10-10T20:03:36.318Z,11.60
2022-10-10T20:06:05.374Z,11.60
2022-10-10T20:08:33.792Z,11.60
2022-10-10T20:11:02.954Z,11.60
2022-10-10T20:13:31.719Z,11.60
2022-10-10T20:16:03.188Z,11.60
2022-10-10T20:18:33.133Z,11.60
2022-10-10T20:21:01.214Z,11.60
2022-10-10T20:23:29.005Z,11.70
2022-10-10T20:25:57.100Z,11.60
2022-10-10T20:28:26.265Z,11.50
2022-10-10T20:30:54.107Z,11.60
2022-10-10T20:33:22.217Z,11.60
2022-10-10T20:35:53.774Z,11.50
2022-10-10T20:38:23.925Z,11.60
2022-10-10T20:40:51.674Z,11.50
2022-10-10T20:43:19.524Z,11.50
2022-10-10T20:45:48.652Z,11.50
2022-10-10T20:48:16.490Z,11.50
2022-10-10T20:50:44.259Z,11.50
2022-10-10T20:53:13.198Z,11.50
2022-10-10T20:55:41.089Z,11.50
2022-10-10T20:58:08.906Z,11.40
2022-10-10T21:00:40.660Z,11.40
2022-10-10T21:03:09.944Z,11.40
2022-10-10T21:05:37.770Z,11.30
2022-10-10T21:08:05.904Z,11.30
2022-10-10T21:10:34.074Z,11.30
2022-10-10T21:13:02.058Z,11.30
2022-10-10T21:15:29.890Z,11.30
2022-10-10T21:17:58.131Z,11.30
2022-10-10T21:20:27.292Z,11.30
2022-10-10T21:22:55.629Z,11.30
2022-10-10T21:25:23.435Z,11.20
2022-10-10T21:27:51.238Z,11.20
2022-10-10T21:30:19.195Z,11.20
2022-10-10T21:32:47.013Z,11.10
2022-10-10T21:35:14.916Z,11.10
2022-10-10T21:37:45.463Z,11.20
2022-10-10T21:40:13.971Z,11.10
2022-10-10T21:42:41.754Z,11.10
2022-10-10T21:45:10.657Z,11.00
2022-10-10T21:47:38.441Z,11.00
2022-10-10T21:50:07.126Z,11.00
2022-10-10T21:52:34.992Z,10.90
2022-10-10T21:55:04.463Z,11.00
2022-10-10T21:57:32.325Z,11.00
2022-10-10T22:00:00.113Z,11.00
2022-10-10T22:02:27.924Z,11.00
2022-10-10T22:04:55.698Z,11.00
2022-10-10T22:07:23.545Z,10.90
2022-10-10T22:09:51.368Z,10.90
2022-10-10T22:12:20.533Z,10.90
2022-10-10T22:14:48.408Z,10.90
2022-10-10T22:17:16.285Z,10.90
2022-10-10T22:19:44.302Z,10.90
2022-10-10T22:22:12.152Z,10.80
2022-10-10T22:24:40.060Z,10.80
2022-10-10T22:27:07.913Z,10.80
2022-10-10T22:29:37.345Z,10.70
2022-10-10T22:32:05.266Z,10.70
2022-10-10T22:34:33.067Z,10.70
2022-10-10T22:37:00.954Z,10.70
2022-10-10T22:39:28.857Z,10.60
2022-10-10T22:41:56.777Z,10.60
2022-10-10T22:44:24.593Z,10.60
2022-10-10T22:46:53.973Z,10.50
2022-10-10T22:49:21.834Z,10.50
2022-10-10T22:51:49.715Z,10.50
2022-10-10T22:54:17.534Z,10.50
2022-10-10T22:56:46.036Z,10.50
2022-10-10T22:59:13.857Z,10.40
2022-10-10T23:01:41.706Z,10.40
2022-10-10T23:04:13.277Z,10.40
2022-10-10T23:06:41.478Z,10.40
2022-10-10T23:09:09.386Z,10.40
2022-10-10T23:11:37.322Z,10.40
2022-10-10T23:14:05.359Z,10.40
2022-10-10T23:16:33.245Z,10.40
2022-10-10T23:19:01.082Z,10.40
2022-10-10T23:21:30.375Z,10.40
2022-10-10T23:23:58.245Z,10.40
2022-10-10T23:26:26.031Z,10.40
2022-10-10T23:28:54.016Z,10.40
2022-10-10T23:31:21.885Z,10.40
2022-10-10T23:33:49.797Z,10.30
2022-10-10T23:36:17.744Z,10.30
2022-10-10T23:38:47.471Z,10.30
2022-10-10T23:41:16.038Z,10.30
2022-10-10T23:43:44.108Z,10.20
2022-10-10T23:46:12.448Z,10.20
2022-10-10T23:48:40.303Z,10.20
2022-10-10T23:51:08.190Z,10.20
2022-10-10T23:53:36.824Z,10.20
2022-10-10T23:56:06.801Z,10.20
2022-10-10T23:58:35.177Z,10.10
